createdAt,value
2023-07-12T00:00:49.413Z,100.00
2023-07-12T00:03:16.857Z,100.00
2023-07-12T00:05:44.353Z,100.00
2023-07-12T00:08:25.266Z,100.00
2023-07-12T00:10:53.556Z,100.00
2023-07-12T00:13:22.100Z,100.00
2023-07-12T00:15:49.626Z,100.00
2023-07-12T00:18:23.322Z,100.00
2023-07-12T00:20:51.325Z,100.00
2023-07-12T00:23:18.789Z,100.00
2023-07-12T00:25:46.875Z,100.00
2023-07-12T00:28:27.285Z,100.00
2023-07-12T00:30:56.756Z,100.00
2023-07-12T00:33:23.822Z,100.00
2023-07-12T00:35:51.093Z,100.00
2023-07-12T00:38:23.043Z,100.00
2023-07-12T00:41:04.188Z,100.00
2023-07-12T00:43:45.729Z,100.00
2023-07-12T00:46:28.106Z,100.00
2023-07-12T00:48:55.140Z,100.00
2023-07-12T00:51:40.867Z,100.00
2023-07-12T00:54:15.914Z,100.00
2023-07-12T00:56:43.904Z,100.00
2023-07-12T00:59:23.185Z,100.00
2023-07-12T01:01:52.701Z,100.00
2023-07-12T01:04:22.902Z,100.00
2023-07-12T01:06:50.842Z,100.00
2023-07-12T01:09:18.224Z,100.00
2023-07-12T01:11:46.428Z,100.00
2023-07-12T01:14:15.252Z,100.00
2023-07-12T01:16:43.694Z,100.00
2023-07-12T01:19:10.927Z,100.00
2023-07-12T01:21:38.949Z,100.00
2023-07-12T01:24:06.234Z,100.00
2023-07-12T01:26:35.786Z,100.00
2023-07-12T01:29:04.137Z,100.00
2023-07-12T01:31:31.511Z,100.00
2023-07-12T01:33:58.621Z,100.00
2023-07-12T01:36:26.094Z,100.00
2023-07-12T01:38:54.888Z,100.00
2023-07-12T01:41:22.060Z,100.00
2023-07-12T01:43:49.299Z,100.00
2023-07-12T01:46:19.143Z,100.00
2023-07-12T01:48:47.672Z,100.00
2023-07-12T01:51:15.131Z,100.00
2023-07-12T01:53:42.261Z,100.00
2023-07-12T01:56:10.322Z,100.00
2023-07-12T01:58:37.924Z,100.00
2023-07-12T02:01:05.191Z,100.00
2023-07-12T02:03:35.251Z,100.00
2023-07-12T02:06:03.190Z,100.00
2023-07-12T02:08:30.380Z,100.00
2023-07-12T02:10:57.502Z,100.00
2023-07-12T02:13:25.161Z,100.00
2023-07-12T02:15:52.450Z,100.00
2023-07-12T02:18:20.330Z,100.00
2023-07-12T02:20:47.466Z,100.00
2023-07-12T02:23:15.058Z,100.00
2023-07-12T02:25:42.662Z,100.00
2023-07-12T02:28:10.373Z,100.00
2023-07-12T02:30:38.020Z,100.00
2023-07-12T02:33:05.411Z,100.00
2023-07-12T02:35:32.868Z,100.00
2023-07-12T02:38:00.458Z,100.00
2023-07-12T02:40:28.013Z,100.00
2023-07-12T02:42:55.234Z,100.00
2023-07-12T02:45:22.267Z,100.00
2023-07-12T02:47:49.440Z,100.00
2023-07-12T02:50:16.667Z,100.00
2023-07-12T02:52:44.832Z,100.00
2023-07-12T02:55:11.932Z,100.00
2023-07-12T02:57:39.175Z,100.00
2023-07-12T03:00:08.106Z,100.00
2023-07-12T03:02:35.369Z,100.00
2023-07-12T03:05:02.546Z,100.00
2023-07-12T03:07:29.762Z,100.00
2023-07-12T03:09:57.516Z,100.00
2023-07-12T03:12:25.064Z,100.00
2023-07-12T03:14:52.927Z,100.00
2023-07-12T03:17:20.215Z,100.00
2023-07-12T03:19:47.319Z,100.00
2023-07-12T03:22:14.284Z,100.00
2023-07-12T03:24:41.556Z,100.00
2023-07-12T03:27:08.536Z,100.00
2023-07-12T03:29:35.696Z,100.00
2023-07-12T03:32:03.058Z,100.00
2023-07-12T03:34:32.647Z,100.00
2023-07-12T03:36:59.949Z,100.00
2023-07-12T03:39:27.288Z,100.00
2023-07-12T03:41:54.294Z,100.00
2023-07-12T03:44:21.238Z,100.00
2023-07-12T03:46:48.409Z,100.00
2023-07-12T03:49:15.348Z,100.00
2023-07-12T03:51:42.310Z,100.00
2023-07-12T03:54:10.036Z,100.00
2023-07-12T03:56:37.734Z,100.00
2023-07-12T03:59:05.217Z,100.00
2023-07-12T04:01:33.283Z,100.00
2023-07-12T04:04:00.446Z,100.00
2023-07-12T04:06:27.497Z,100.00
2023-07-12T04:08:54.574Z,100.00
2023-07-12T04:11:32.480Z,100.00
2023-07-12T04:14:03.366Z,100.00
2023-07-12T04:16:31.176Z,100.00
2023-07-12T04:18:58.636Z,100.00
2023-07-12T04:21:25.902Z,100.00
2023-07-12T04:23:53.156Z,99.73
2023-07-12T04:26:21.701Z,98.80
2023-07-12T04:28:51.051Z,99.59
2023-07-12T04:31:19.472Z,98.52
2023-07-12T04:33:47.651Z,100.00
2023-07-12T04:36:15.942Z,97.26
2023-07-12T04:38:43.109Z,97.20
2023-07-12T04:41:11.546Z,98.08
2023-07-12T04:43:39.034Z,98.09
2023-07-12T04:46:06.913Z,95.82
2023-07-12T04:48:34.499Z,94.79
2023-07-12T04:51:02.100Z,93.67
2023-07-12T04:53:29.492Z,94.24
2023-07-12T04:55:56.647Z,94.63
2023-07-12T04:58:24.257Z,93.24
2023-07-12T05:00:51.431Z,94.91
2023-07-12T05:03:18.555Z,92.89
2023-07-12T05:05:46.228Z,92.03
2023-07-12T05:08:13.631Z,93.88
2023-07-12T05:10:41.705Z,94.47
2023-07-12T05:13:08.781Z,90.97
2023-07-12T05:15:35.919Z,89.95
2023-07-12T05:18:03.053Z,91.26
2023-07-12T05:20:30.612Z,90.75
2023-07-12T05:22:57.817Z,90.17
2023-07-12T05:25:25.330Z,90.73
2023-07-12T05:27:52.262Z,92.30
2023-07-12T05:30:19.228Z,91.22
2023-07-12T05:32:46.988Z,89.60
2023-07-12T05:35:13.984Z,89.32
2023-07-12T05:37:41.135Z,89.24
2023-07-12T05:40:11.213Z,88.25
2023-07-12T05:42:41.695Z,85.64
2023-07-12T05:45:10.624Z,83.97
2023-07-12T05:47:38.847Z,82.05
2023-07-12T05:50:07.048Z,83.44
2023-07-12T05:52:34.064Z,78.76
2023-07-12T05:55:01.618Z,79.86
2023-07-12T05:57:28.645Z,78.76
2023-07-12T05:59:56.174Z,77.36
2023-07-12T06:02:23.240Z,78.22
2023-07-12T06:04:50.728Z,76.10
2023-07-12T06:07:18.119Z,78.04
2023-07-12T06:09:45.283Z,74.96
2023-07-12T06:12:12.400Z,71.73
2023-07-12T06:14:39.882Z,71.66
2023-07-12T06:17:07.413Z,71.57
2023-07-12T06:19:34.792Z,70.87
2023-07-12T06:22:01.885Z,68.92
2023-07-12T06:24:29.106Z,67.14
2023-07-12T06:26:56.367Z,68.55
2023-07-12T06:29:23.528Z,67.57
2023-07-12T06:31:51.924Z,68.87
2023-07-12T06:34:19.078Z,68.53
2023-07-12T06:36:46.112Z,68.54
2023-07-12T06:39:13.249Z,69.78
2023-07-12T06:41:40.491Z,68.36
2023-07-12T06:44:07.552Z,65.46
2023-07-12T06:46:36.202Z,69.64
2023-07-12T06:49:03.756Z,67.44
2023-07-12T06:51:31.376Z,68.20
2023-07-12T06:53:58.530Z,65.63
2023-07-12T06:56:25.685Z,68.74
2023-07-12T06:58:52.662Z,66.94
2023-07-12T07:01:19.841Z,65.36
2023-07-12T07:03:47.986Z,64.51
2023-07-12T07:06:15.470Z,65.66
2023-07-12T07:08:42.566Z,62.37
2023-07-12T07:11:10.165Z,58.91
2023-07-12T07:13:38.207Z,54.77
2023-07-12T07:16:06.175Z,56.16
2023-07-12T07:18:36.137Z,55.83
2023-07-12T07:21:04.596Z,57.41
2023-07-12T07:23:34.666Z,57.77
2023-07-12T07:26:03.961Z,52.22
2023-07-12T07:28:31.663Z,53.22
2023-07-12T07:30:58.821Z,50.51
2023-07-12T07:33:26.131Z,50.74
2023-07-12T07:35:53.101Z,49.59
2023-07-12T07:38:29.828Z,49.56
2023-07-12T07:40:56.981Z,49.76
2023-07-12T07:43:24.152Z,49.74
2023-07-12T07:45:52.775Z,47.03
2023-07-12T07:48:20.238Z,47.19
2023-07-12T07:50:47.250Z,45.83
2023-07-12T07:53:14.368Z,45.58
2023-07-12T07:55:42.941Z,43.89
2023-07-12T07:58:11.089Z,44.48
2023-07-12T08:00:38.475Z,45.09
2023-07-12T08:03:06.410Z,46.63
2023-07-12T08:05:34.145Z,47.72
2023-07-12T08:08:01.260Z,46.55
2023-07-12T08:10:29.876Z,46.54
2023-07-12T08:12:58.743Z,46.61
2023-07-12T08:15:26.083Z,43.84
2023-07-12T08:17:53.712Z,45.56
2023-07-12T08:20:21.541Z,46.29
2023-07-12T08:22:48.759Z,42.99
2023-07-12T08:25:16.061Z,43.44
2023-07-12T08:27:43.327Z,42.19
2023-07-12T08:30:11.033Z,44.07
2023-07-12T08:32:38.126Z,42.40
2023-07-12T08:35:05.612Z,43.28
2023-07-12T08:37:32.938Z,43.20
2023-07-12T08:39:59.997Z,42.43
2023-07-12T08:42:28.650Z,43.06
2023-07-12T08:44:56.436Z,42.74
2023-07-12T08:47:32.167Z,42.85
2023-07-12T08:49:59.685Z,45.33
2023-07-12T08:52:30.676Z,42.21
2023-07-12T08:54:59.191Z,43.70
2023-07-12T08:57:26.571Z,42.21
2023-07-12T09:00:11.617Z,41.66
2023-07-12T09:02:38.690Z,40.61
2023-07-12T09:05:17.976Z,42.13
2023-07-12T09:07:53.358Z,42.89
2023-07-12T09:10:41.740Z,40.76
2023-07-12T09:13:11.286Z,41.36
2023-07-12T09:15:40.802Z,41.20
2023-07-12T09:18:09.163Z,42.59
2023-07-12T09:20:41.211Z,40.46
2023-07-12T09:23:11.920Z,39.80
2023-07-12T09:25:40.129Z,39.15
2023-07-12T09:28:07.105Z,39.18
2023-07-12T09:30:36.912Z,40.46
2023-07-12T09:33:04.890Z,41.28
2023-07-12T09:35:39.294Z,40.54
2023-07-12T09:38:17.248Z,39.96
2023-07-12T09:40:48.896Z,39.13
2023-07-12T09:43:18.153Z,38.44
2023-07-12T09:46:12.630Z,36.99
2023-07-12T09:48:46.121Z,37.31
2023-07-12T09:51:39.975Z,37.20
2023-07-12T09:54:46.928Z,36.42
2023-07-12T09:57:32.908Z,36.63
2023-07-12T10:00:23.857Z,34.63
2023-07-12T10:03:21.032Z,34.83
2023-07-12T10:05:54.005Z,36.25
2023-07-12T10:08:21.080Z,35.67
2023-07-12T10:10:52.115Z,33.60
2023-07-12T10:13:37.716Z,32.65
2023-07-12T10:16:09.320Z,30.57
2023-07-12T10:18:38.326Z,30.70
2023-07-12T10:21:05.530Z,31.92
2023-07-12T10:23:46.563Z,33.31
2023-07-12T10:26:14.805Z,33.25
2023-07-12T10:29:05.611Z,33.15
2023-07-12T10:31:50.603Z,32.42
2023-07-12T10:34:38.440Z,31.16
2023-07-12T10:37:30.972Z,29.48
2023-07-12T10:39:59.252Z,28.16
2023-07-12T10:42:35.253Z,29.57
2023-07-12T10:45:02.494Z,29.24
2023-07-12T10:47:35.464Z,27.94
2023-07-12T10:50:06.025Z,27.22
2023-07-12T10:52:37.933Z,26.31
2023-07-12T10:55:05.027Z,27.31
2023-07-12T10:58:13.986Z,27.86
2023-07-12T11:00:52.386Z,27.87
2023-07-12T11:03:21.668Z,28.55
2023-07-12T11:06:00.455Z,28.38
2023-07-12T11:08:33.684Z,29.26
2023-07-12T11:11:21.775Z,29.31
2023-07-12T11:13:57.722Z,29.54
2023-07-12T11:16:24.667Z,30.72
2023-07-12T11:18:53.767Z,31.15
2023-07-12T11:21:42.797Z,31.33
2023-07-12T11:24:28.506Z,31.93
2023-07-12T11:26:58.401Z,30.47
2023-07-12T11:29:25.601Z,31.04
2023-07-12T11:32:32.746Z,31.57
2023-07-12T11:35:01.805Z,30.45
2023-07-12T11:37:32.890Z,31.48
2023-07-12T11:40:00.085Z,30.17
2023-07-12T11:42:28.726Z,30.08
2023-07-12T11:45:06.717Z,30.14
2023-07-12T11:47:35.415Z,28.55
2023-07-12T11:50:05.067Z,29.73
2023-07-12T11:52:32.281Z,28.72
2023-07-12T11:54:59.420Z,29.36
2023-07-12T11:57:26.503Z,30.49
2023-07-12T11:59:54.274Z,29.97
2023-07-12T12:02:22.230Z,29.84
2023-07-12T12:04:51.331Z,28.94
2023-07-12T12:07:25.923Z,31.38
2023-07-12T12:09:53.170Z,31.81
2023-07-12T12:12:20.875Z,32.73
2023-07-12T12:14:49.299Z,33.44
2023-07-12T12:17:18.143Z,30.80
2023-07-12T12:19:50.224Z,29.98
2023-07-12T12:22:19.638Z,29.06
2023-07-12T12:24:57.780Z,31.39
2023-07-12T12:27:31.171Z,32.79
2023-07-12T12:29:58.092Z,32.14
2023-07-12T12:32:26.662Z,29.05
2023-07-12T12:34:54.467Z,29.42
2023-07-12T12:37:26.637Z,29.47
2023-07-12T12:40:01.081Z,32.06
2023-07-12T12:42:29.604Z,32.96
2023-07-12T12:44:56.756Z,32.61
2023-07-12T12:47:31.888Z,32.43
2023-07-12T12:55:09.205Z,30.30
2023-07-12T13:11:13.966Z,29.15
2023-07-12T13:18:47.616Z,29.67
2023-07-12T13:21:05.546Z,29.17
2023-07-12T13:26:02.989Z,28.35
2023-07-12T13:28:30.112Z,29.80
2023-07-12T13:30:57.607Z,28.58
2023-07-12T13:33:25.331Z,28.47
2023-07-12T13:44:34.805Z,30.76
2023-07-12T13:46:13.392Z,29.74
2023-07-12T13:48:41.812Z,30.01
2023-07-12T13:51:24.462Z,30.22
2023-07-12T13:53:51.751Z,28.27
2023-07-12T13:59:15.853Z,27.72
2023-07-12T14:04:23.360Z,29.20
2023-07-12T14:09:20.994Z,28.89
2023-07-12T14:11:48.759Z,29.41
2023-07-12T14:14:15.987Z,28.86
2023-07-12T14:16:44.327Z,28.01
2023-07-12T14:19:11.484Z,28.99
2023-07-12T14:21:39.482Z,28.92
2023-07-12T14:24:06.613Z,28.34
2023-07-12T14:26:35.463Z,28.58
2023-07-12T14:29:05.535Z,28.47
2023-07-12T14:31:38.292Z,28.33
2023-07-12T14:34:05.823Z,28.10
2023-07-12T14:36:33.195Z,28.46
2023-07-12T14:39:01.244Z,28.65
2023-07-12T14:41:34.392Z,28.33
2023-07-12T14:44:13.635Z,28.88
2023-07-12T14:46:41.413Z,28.97
2023-07-12T14:49:08.580Z,29.13
2023-07-12T14:51:36.921Z,28.11
2023-07-12T14:54:11.158Z,27.92
2023-07-12T14:56:39.969Z,28.47
2023-07-12T14:59:13.274Z,29.10
2023-07-12T15:01:41.746Z,28.63
2023-07-12T15:04:13.770Z,29.67
2023-07-12T15:06:40.970Z,30.22
2023-07-12T15:09:09.540Z,30.26
2023-07-12T15:11:41.561Z,29.34
2023-07-12T15:14:11.807Z,28.78
2023-07-12T15:16:42.745Z,29.90
2023-07-12T15:19:09.909Z,29.82
2023-07-12T15:21:37.220Z,29.78
2023-07-12T15:24:04.866Z,30.22
2023-07-12T15:26:32.378Z,29.62
2023-07-12T15:28:59.460Z,30.11
2023-07-12T15:31:29.542Z,31.25
2023-07-12T15:33:58.122Z,31.47
2023-07-12T15:36:27.157Z,31.46
2023-07-12T15:38:54.464Z,31.18
2023-07-12T15:41:23.172Z,31.62
2023-07-12T15:43:58.424Z,31.42
2023-07-12T15:46:28.085Z,30.40
2023-07-12T15:48:55.920Z,30.53
2023-07-12T15:51:35.795Z,31.55
2023-07-12T15:54:04.206Z,31.39
2023-07-12T15:56:36.563Z,31.66
2023-07-12T15:59:05.518Z,32.10
2023-07-12T16:01:33.204Z,32.08
2023-07-12T16:04:00.551Z,32.91
2023-07-12T16:06:28.031Z,33.52
2023-07-12T16:08:55.319Z,33.80
2023-07-12T16:11:38.952Z,34.71
2023-07-12T16:14:14.309Z,34.83
2023-07-12T16:16:41.408Z,35.24
2023-07-12T16:19:10.128Z,36.13
2023-07-12T16:21:38.060Z,36.48
2023-07-12T16:24:05.576Z,36.49
2023-07-12T16:26:36.777Z,37.26
2023-07-12T16:29:04.997Z,37.78
2023-07-12T16:31:53.000Z,37.59
2023-07-12T16:34:26.473Z,37.60
2023-07-12T16:36:55.678Z,38.14
2023-07-12T16:39:24.298Z,37.78
2023-07-12T16:41:51.334Z,39.13
2023-07-12T16:44:23.941Z,38.30
2023-07-12T16:46:51.382Z,38.52
2023-07-12T16:49:18.648Z,38.52
2023-07-12T16:51:55.950Z,38.43
2023-07-12T16:54:23.056Z,40.92
2023-07-12T16:56:51.847Z,39.43
2023-07-12T16:59:19.676Z,39.53
2023-07-12T17:01:47.089Z,39.34
2023-07-12T17:04:19.972Z,40.11
2023-07-12T17:06:47.308Z,39.75
2023-07-12T17:09:23.470Z,40.64
2023-07-12T17:11:51.335Z,40.24
2023-07-12T17:14:18.499Z,40.91
2023-07-12T17:16:45.614Z,40.90
2023-07-12T17:19:12.798Z,41.01
2023-07-12T17:21:40.516Z,41.52
2023-07-12T17:24:12.333Z,42.87
2023-07-12T17:26:39.510Z,42.34
2023-07-12T17:29:06.413Z,43.50
2023-07-12T17:31:37.966Z,42.91
2023-07-12T17:34:30.204Z,43.59
2023-07-12T17:36:57.515Z,44.03
2023-07-12T17:39:25.502Z,44.98
2023-07-12T17:41:54.380Z,45.60
2023-07-12T17:44:21.702Z,46.26
2023-07-12T17:46:51.035Z,46.81
2023-07-12T17:49:18.147Z,47.51
2023-07-12T17:51:46.266Z,47.15
2023-07-12T17:54:13.765Z,47.21
2023-07-12T17:56:41.992Z,48.13
2023-07-12T17:59:09.902Z,48.28
2023-07-12T18:01:37.413Z,48.58
2023-07-12T18:04:04.755Z,48.34
2023-07-12T18:06:34.664Z,49.01
2023-07-12T18:09:02.002Z,51.15
2023-07-12T18:11:44.038Z,49.62
2023-07-12T18:14:22.916Z,50.04
2023-07-12T18:16:50.838Z,50.40
2023-07-12T18:19:17.930Z,49.02
2023-07-12T18:21:46.150Z,49.82
2023-07-12T18:24:21.410Z,49.40
2023-07-12T18:26:50.085Z,51.06
2023-07-12T18:29:17.337Z,51.82
2023-07-12T18:31:44.616Z,51.50
2023-07-12T18:34:12.222Z,52.50
2023-07-12T18:36:41.508Z,52.55
2023-07-12T18:39:08.889Z,48.30
2023-07-12T18:41:36.188Z,52.07
2023-07-12T18:44:03.970Z,52.29
2023-07-12T18:46:31.468Z,52.51
2023-07-12T18:48:58.624Z,52.50
2023-07-12T18:51:33.724Z,52.63
2023-07-12T18:54:01.210Z,54.09
2023-07-12T18:56:30.352Z,53.79
2023-07-12T18:59:01.030Z,54.69
2023-07-12T19:01:30.142Z,54.32
2023-07-12T19:03:57.377Z,55.94
2023-07-12T19:06:31.166Z,56.70
2023-07-12T19:08:59.222Z,55.74
2023-07-12T19:11:38.024Z,55.82
2023-07-12T19:14:06.071Z,58.09
2023-07-12T19:16:34.943Z,57.61
2023-07-12T19:19:02.947Z,56.96
2023-07-12T19:21:31.788Z,58.26
2023-07-12T19:23:59.241Z,58.28
2023-07-12T19:26:28.514Z,59.42
2023-07-12T19:28:55.787Z,60.56
2023-07-12T19:31:29.671Z,61.07
2023-07-12T19:33:57.637Z,61.94
2023-07-12T19:36:25.714Z,63.21
2023-07-12T19:38:53.606Z,63.47
2023-07-12T19:41:21.338Z,64.26
2023-07-12T19:43:48.455Z,63.54
2023-07-12T19:46:17.178Z,63.91
2023-07-12T19:48:44.326Z,63.75
2023-07-12T19:51:26.117Z,64.70
2023-07-12T19:53:54.042Z,65.51
2023-07-12T19:56:21.095Z,66.05
2023-07-12T19:58:51.580Z,67.22
2023-07-12T20:01:18.887Z,67.92
2023-07-12T20:03:46.470Z,68.30
2023-07-12T20:06:13.921Z,68.39
2023-07-12T20:08:41.828Z,69.46
2023-07-12T20:11:09.249Z,70.54
2023-07-12T20:13:36.862Z,70.63
2023-07-12T20:16:04.825Z,70.83
2023-07-12T20:18:32.049Z,70.65
2023-07-12T20:20:59.311Z,71.92
2023-07-12T20:23:26.405Z,72.66
2023-07-12T20:25:55.154Z,71.65
2023-07-12T20:28:23.036Z,72.15
2023-07-12T20:30:50.447Z,73.15
2023-07-12T20:33:20.239Z,72.41
2023-07-12T20:35:47.503Z,73.76
2023-07-12T20:38:14.704Z,73.57
2023-07-12T20:40:42.104Z,73.06
2023-07-12T20:43:09.121Z,73.37
2023-07-12T20:45:36.457Z,72.11
2023-07-12T20:48:07.927Z,71.63
2023-07-12T20:50:37.704Z,71.44
2023-07-12T20:53:07.850Z,71.68
2023-07-12T20:55:35.340Z,73.27
2023-07-12T20:58:12.241Z,71.76
2023-07-12T21:00:48.345Z,73.22
2023-07-12T21:03:16.453Z,72.36
2023-07-12T21:05:44.185Z,73.16
2023-07-12T21:08:13.342Z,74.52
2023-07-12T21:10:42.906Z,74.04
2023-07-12T21:13:10.021Z,74.81
2023-07-12T21:15:37.628Z,75.57
2023-07-12T21:18:04.731Z,75.18
2023-07-12T21:20:33.165Z,75.08
2023-07-12T21:23:00.227Z,75.86
2023-07-12T21:25:27.378Z,75.58
2023-07-12T21:27:54.473Z,75.09
2023-07-12T21:30:21.640Z,75.32
2023-07-12T21:32:49.188Z,77.07
2023-07-12T21:35:21.159Z,77.24
2023-07-12T21:37:48.605Z,76.84
2023-07-12T21:40:15.804Z,78.17
2023-07-12T21:42:44.504Z,78.86
2023-07-12T21:45:11.523Z,80.06
2023-07-12T21:47:40.335Z,80.71
2023-07-12T21:50:08.042Z,80.91
2023-07-12T21:52:35.056Z,81.54
2023-07-12T21:55:03.797Z,82.72
2023-07-12T21:57:30.840Z,82.57
2023-07-12T21:59:58.097Z,83.34
2023-07-12T22:02:25.269Z,82.95
2023-07-12T22:04:52.314Z,83.99
2023-07-12T22:07:19.288Z,84.26
2023-07-12T22:09:46.862Z,83.90
2023-07-12T22:12:13.948Z,84.35
2023-07-12T22:14:41.265Z,84.81
2023-07-12T22:17:09.370Z,85.05
2023-07-12T22:19:37.276Z,85.17
2023-07-12T22:22:11.537Z,85.32
2023-07-12T22:24:39.800Z,85.61
2023-07-12T22:27:08.032Z,85.11
2023-07-12T22:29:39.082Z,84.99
2023-07-12T22:32:06.785Z,85.75
2023-07-12T22:34:34.161Z,85.91
2023-07-12T22:37:01.620Z,86.90
2023-07-12T22:39:29.086Z,87.16
2023-07-12T22:41:56.846Z,87.33
2023-07-12T22:44:23.974Z,89.06
2023-07-12T22:46:53.359Z,92.45
2023-07-12T22:49:21.843Z,94.57
2023-07-12T22:51:48.965Z,93.90
2023-07-12T22:54:16.176Z,93.89
2023-07-12T22:56:48.682Z,94.35
2023-07-12T22:59:16.691Z,94.77
2023-07-12T23:01:47.581Z,94.10
2023-07-12T23:04:14.567Z,94.59
2023-07-12T23:06:42.030Z,94.15
2023-07-12T23:09:11.415Z,94.07
2023-07-12T23:11:38.677Z,94.48
2023-07-12T23:14:06.558Z,94.36
2023-07-12T23:16:33.677Z,94.57
2023-07-12T23:19:00.821Z,94.58
2023-07-12T23:21:27.936Z,94.90
2023-07-12T23:23:54.974Z,95.04
2023-07-12T23:26:22.047Z,94.89
2023-07-12T23:28:49.041Z,95.28
2023-07-12T23:31:16.663Z,95.19
2023-07-12T23:33:44.350Z,95.24
2023-07-12T23:36:14.457Z,95.32
2023-07-12T23:38:42.890Z,95.28
2023-07-12T23:41:11.541Z,95.68
2023-07-12T23:43:39.068Z,95.34
2023-07-12T23:46:06.567Z,95.97
2023-07-12T23:48:34.668Z,95.44
2023-07-12T23:51:01.719Z,95.78
2023-07-12T23:53:29.247Z,95.66
2023-07-12T23:55:56.327Z,96.26
2023-07-12T23:58:23.378Z,95.83
